createdAt,value
2023-03-16T00:08:29.385Z,100100.66
2023-03-16T00:18:02.780Z,100086.77
2023-03-16T00:27:38.196Z,100089.47
2023-03-16T00:37:09.559Z,100085.52
2023-03-16T00:46:42.605Z,100082.69
2023-03-16T00:56:15.447Z,100086.54
2023-03-16T01:05:50.283Z,100104.88
2023-03-16T01:15:21.990Z,100096.99
2023-03-16T01:24:55.283Z,100090.30
2023-03-16T01:34:30.040Z,100065.38
2023-03-16T01:44:03.525Z,100061.25
2023-03-16T01:53:35.433Z,100051.20
2023-03-16T02:03:10.554Z,100039.13
2023-03-16T02:12:42.550Z,100041.23
2023-03-16T02:22:17.864Z,100035.05
2023-03-16T02:31:51.297Z,100026.11
2023-03-16T02:41:22.709Z,100015.23
2023-03-16T02:50:56.524Z,100006.41
2023-03-16T03:00:31.619Z,99979.72
2023-03-16T03:10:03.298Z,99998.55
2023-03-16T03:19:36.605Z,99986.22
2023-03-16T03:29:09.759Z,99984.80
2023-03-16T03:38:44.660Z,99982.33
2023-03-16T03:48:15.993Z,99974.88
2023-03-16T03:57:51.054Z,99981.92
2023-03-16T04:07:24.164Z,99980.20
2023-03-16T04:16:57.206Z,99965.42
2023-03-16T04:26:30.450Z,99981.14
2023-03-16T04:36:02.112Z,99970.53
2023-03-16T04:45:37.276Z,99966.67
2023-03-16T04:55:09.274Z,99968.25
2023-03-16T05:04:42.860Z,99976.27
2023-03-16T05:14:17.896Z,99967.66
2023-03-16T05:23:51.282Z,99950.16
2023-03-16T05:33:24.276Z,99943.99
2023-03-16T05:42:56.409Z,99932.80
2023-03-16T05:52:31.478Z,99936.77
2023-03-16T06:02:05.097Z,99940.27
2023-03-16T06:11:36.750Z,99945.45
2023-03-16T06:21:09.838Z,99948.09
2023-03-16T06:30:45.101Z,99943.77
2023-03-16T06:40:16.489Z,99944.51
2023-03-16T06:49:50.414Z,99950.13
2023-03-16T06:59:25.836Z,99939.77
2023-03-16T07:08:57.718Z,99932.60
2023-03-16T07:18:33.135Z,99941.61
2023-03-16T07:28:06.915Z,99955.94
2023-03-16T07:37:40.349Z,99963.13
2023-03-16T07:47:14.259Z,99956.47
2023-03-16T07:56:49.481Z,99956.00
2023-03-16T08:06:23.047Z,99959.80
2023-03-16T08:15:56.121Z,99950.91
2023-03-16T08:25:30.821Z,99936.83
2023-03-16T08:26:34.874Z,99935.53
2023-03-16T08:36:06.871Z,99931.02
2023-03-16T08:37:10.282Z,99927.77
2023-03-16T08:38:14.216Z,99926.55
2023-03-16T08:47:47.061Z,99930.70
2023-03-16T08:48:49.379Z,99930.40
2023-03-16T08:49:53.408Z,99931.05
2023-03-16T08:50:55.752Z,99929.79
2023-03-16T08:51:58.178Z,99924.69
2023-03-16T08:53:00.663Z,99923.48
2023-03-16T08:54:03.071Z,99924.25
2023-03-16T08:55:07.189Z,99927.39
2023-03-16T08:56:09.402Z,99937.46
2023-03-16T08:57:13.408Z,99935.98
2023-03-16T08:58:15.719Z,99930.51
2023-03-16T08:59:28.895Z,99931.05
2023-03-16T09:00:20.548Z,99931.72
2023-03-16T09:01:23.081Z,99928.73
2023-03-16T09:02:25.477Z,99920.00
2023-03-16T09:03:29.507Z,99924.88
2023-03-16T09:04:31.942Z,99923.34
2023-03-16T09:05:35.829Z,99911.20
2023-03-16T09:06:38.206Z,99913.29
2023-03-16T09:07:40.645Z,99917.23
2023-03-16T09:08:43.019Z,99917.11
2023-03-16T09:09:46.990Z,99911.40
2023-03-16T09:10:50.889Z,99911.05
2023-03-16T09:11:54.797Z,99909.14
2023-03-16T09:12:58.650Z,99912.60
2023-03-16T09:14:00.934Z,99910.77
2023-03-16T09:15:04.950Z,99908.25
2023-03-16T09:16:07.280Z,99910.50
2023-03-16T09:25:39.165Z,99900.52
2023-03-16T09:26:41.699Z,99898.92
2023-03-16T09:27:44.083Z,99893.09
2023-03-16T09:28:46.536Z,99894.09
2023-03-16T09:29:48.943Z,99896.88
2023-03-16T09:30:51.355Z,99894.48
2023-03-16T09:31:55.453Z,99903.81
2023-03-16T09:32:57.687Z,99901.03
2023-03-16T09:34:01.720Z,99900.25
2023-03-16T09:35:05.659Z,99900.44
2023-03-16T09:36:07.939Z,99901.19
2023-03-16T09:37:10.285Z,99900.39
2023-03-16T09:38:14.280Z,99900.11
2023-03-16T09:39:18.242Z,99901.67
2023-03-16T09:40:20.563Z,99896.16
2023-03-16T09:41:22.988Z,99898.17
2023-03-16T09:42:27.981Z,99901.23
2023-03-16T09:43:30.219Z,99899.23
2023-03-16T09:44:34.318Z,99903.66
2023-03-16T09:45:36.648Z,99902.70
2023-03-16T09:46:39.018Z,99895.16
2023-03-16T09:47:43.022Z,99896.08
2023-03-16T09:48:45.425Z,99898.50
2023-03-16T09:49:49.449Z,99894.05
2023-03-16T09:50:52.127Z,99894.34
2023-03-16T09:51:54.178Z,99899.72
2023-03-16T09:52:58.241Z,99896.68
2023-03-16T09:54:02.073Z,99894.29
2023-03-16T09:55:05.445Z,99887.69
2023-03-16T09:56:07.755Z,99890.38
2023-03-16T09:57:10.165Z,99894.28
2023-03-16T09:58:12.595Z,99889.13
2023-03-16T09:59:15.044Z,99887.61
2023-03-16T10:00:19.104Z,99897.59
2023-03-16T10:01:21.450Z,99886.52
2023-03-16T10:02:23.807Z,99881.94
2023-03-16T10:03:26.256Z,99883.45
2023-03-16T10:04:28.729Z,99877.45
2023-03-16T10:05:31.104Z,99880.52
2023-03-16T10:06:34.592Z,99875.38
2023-03-16T10:07:38.545Z,99870.10
2023-03-16T10:08:40.847Z,99872.05
2023-03-16T10:09:44.803Z,99869.23
2023-03-16T10:10:47.237Z,99872.20
2023-03-16T10:11:49.657Z,99871.59
2023-03-16T10:12:53.681Z,99873.28
2023-03-16T10:13:56.098Z,99873.38
2023-03-16T10:14:58.493Z,99868.41
2023-03-16T10:16:00.923Z,99870.84
2023-03-16T10:17:03.480Z,99861.53
2023-03-16T10:18:05.823Z,99867.13
2023-03-16T10:19:08.273Z,99863.58
2023-03-16T10:20:10.757Z,99861.17
2023-03-16T10:21:13.125Z,99871.75
2023-03-16T10:22:15.783Z,99874.77
2023-03-16T10:23:19.933Z,99877.00
2023-03-16T10:24:22.234Z,99880.95
2023-03-16T10:25:24.620Z,99877.89
2023-03-16T10:26:27.050Z,99876.27
2023-03-16T10:27:29.500Z,99882.05
2023-03-16T10:28:33.547Z,99880.52
2023-03-16T10:29:35.855Z,99881.36
2023-03-16T10:30:38.275Z,99883.94
2023-03-16T10:31:40.711Z,99881.70
2023-03-16T10:32:43.169Z,99878.58
2023-03-16T10:33:45.561Z,99880.88
2023-03-16T10:34:49.616Z,99874.29
2023-03-16T10:35:53.575Z,99871.52
2023-03-16T10:36:55.850Z,99871.24
2023-03-16T10:37:59.270Z,99877.48
2023-03-16T10:39:01.648Z,99870.95
2023-03-16T10:40:05.651Z,99873.04
2023-03-16T10:41:07.925Z,99872.83
2023-03-16T10:42:11.950Z,99872.08
2023-03-16T10:43:15.933Z,99873.94
2023-03-16T10:44:18.237Z,99873.75
2023-03-16T10:45:22.207Z,99871.34
2023-03-16T10:46:24.560Z,99869.73
2023-03-16T10:47:28.541Z,99868.43
2023-03-16T10:48:30.875Z,99866.13
2023-03-16T10:49:34.266Z,99863.52
2023-03-16T10:50:37.291Z,99861.84
2023-03-16T10:51:39.645Z,99863.75
2023-03-16T10:52:42.093Z,99859.72
2023-03-16T10:53:44.652Z,99859.26
2023-03-16T10:54:46.843Z,99854.80
2023-03-16T10:55:50.904Z,99850.39
2023-03-16T10:56:53.197Z,99855.02
2023-03-16T10:57:55.625Z,99854.89
2023-03-16T10:58:58.059Z,99854.37
2023-03-16T11:00:00.541Z,99856.44
2023-03-16T11:01:04.648Z,99848.80
2023-03-16T11:02:06.953Z,99850.21
2023-03-16T11:03:10.996Z,99840.92
2023-03-16T11:04:13.460Z,99847.68
2023-03-16T11:05:17.375Z,99842.31
2023-03-16T11:06:19.754Z,99843.15
2023-03-16T11:07:22.173Z,99847.35
2023-03-16T11:08:24.626Z,99846.65
2023-03-16T11:09:27.300Z,99842.63
2023-03-16T11:10:31.267Z,99840.40
2023-03-16T11:11:33.637Z,99841.50
2023-03-16T11:12:37.577Z,99840.80
2023-03-16T11:13:41.469Z,99843.19
2023-03-16T11:14:43.793Z,99845.47
2023-03-16T11:15:47.852Z,99842.71
2023-03-16T11:16:50.151Z,99844.63
2023-03-16T11:17:54.178Z,99845.23
2023-03-16T11:18:58.328Z,99844.94
2023-03-16T11:20:00.684Z,99844.74
2023-03-16T11:21:03.063Z,99843.30
2023-03-16T11:22:07.183Z,99842.55
2023-03-16T11:23:09.482Z,99840.45
2023-03-16T11:24:13.513Z,99840.44
2023-03-16T11:25:17.365Z,99838.58
2023-03-16T11:26:19.714Z,99839.47
2023-03-16T11:27:22.143Z,99835.23
2023-03-16T11:28:24.578Z,99837.67
2023-03-16T11:29:27.112Z,99832.33
2023-03-16T11:30:29.521Z,99835.69
2023-03-16T11:31:32.031Z,99839.53
2023-03-16T11:32:34.498Z,99839.41
2023-03-16T11:33:37.030Z,99839.20
2023-03-16T11:34:39.692Z,99834.44
2023-03-16T11:35:52.697Z,99832.25
2023-03-16T11:36:44.652Z,99831.78
2023-03-16T11:37:47.078Z,99830.97
2023-03-16T11:38:49.549Z,99826.22
2023-03-16T11:39:52.043Z,99827.25
2023-03-16T11:40:54.641Z,99824.53
2023-03-16T11:41:58.604Z,99823.27
2023-03-16T11:43:00.930Z,99819.79
2023-03-16T11:44:03.449Z,99812.00
2023-03-16T11:45:05.828Z,99807.91
2023-03-16T11:46:08.358Z,99802.11
2023-03-16T11:47:10.694Z,99799.64
2023-03-16T11:48:13.118Z,99793.12
2023-03-16T11:49:15.624Z,99786.85
2023-03-16T11:50:19.629Z,99782.31
2023-03-16T11:51:21.960Z,99774.72
2023-03-16T11:52:26.005Z,99779.59
2023-03-16T11:53:28.407Z,99778.34
2023-03-16T11:54:32.505Z,99776.98
2023-03-16T11:55:35.118Z,99776.95
2023-03-16T11:56:39.155Z,99782.33
2023-03-16T11:57:41.573Z,99779.55
2023-03-16T11:58:45.521Z,99776.58
2023-03-16T11:59:52.060Z,99784.77
2023-03-16T12:00:51.912Z,99781.07
2023-03-16T12:02:00.662Z,99780.13
2023-03-16T12:02:58.345Z,99785.34
2023-03-16T12:04:02.382Z,99782.47
2023-03-16T12:05:06.108Z,99776.42
2023-03-16T12:06:20.701Z,99775.68
2023-03-16T12:07:12.442Z,99773.75
2023-03-16T12:08:16.475Z,99775.35
2023-03-16T12:09:20.414Z,99772.13
2023-03-16T12:10:24.758Z,99777.14
2023-03-16T12:11:28.663Z,99767.09
2023-03-16T12:12:32.626Z,99770.89
2023-03-16T12:13:36.454Z,99775.52
2023-03-16T12:14:40.363Z,99767.23
2023-03-16T12:15:44.423Z,99767.14
2023-03-16T12:16:49.695Z,99771.64
2023-03-16T12:17:49.069Z,99772.08
2023-03-16T12:18:51.584Z,99772.42
2023-03-16T12:19:55.619Z,99770.04
2023-03-16T12:20:57.932Z,99773.63
2023-03-16T12:22:00.387Z,99773.73
2023-03-16T12:23:02.818Z,99769.40
2023-03-16T12:24:05.299Z,99760.70
2023-03-16T12:25:07.722Z,99763.33
2023-03-16T12:26:14.003Z,99766.95
2023-03-16T12:27:16.279Z,99764.61
2023-03-16T12:28:20.265Z,99758.66
2023-03-16T12:29:22.573Z,99751.11
2023-03-16T12:30:25.072Z,99752.22
2023-03-16T12:31:27.549Z,99748.11
2023-03-16T12:32:29.947Z,99745.02
2023-03-16T12:33:32.442Z,99745.69
2023-03-16T12:34:36.511Z,99743.37
2023-03-16T12:35:38.884Z,99741.05
2023-03-16T12:36:41.306Z,99732.82
2023-03-16T12:37:43.800Z,99733.35
2023-03-16T12:38:46.154Z,99726.97
2023-03-16T12:39:48.610Z,99728.95
2023-03-16T12:40:51.059Z,99729.76
2023-03-16T12:41:53.539Z,99724.13
2023-03-16T12:42:55.998Z,99723.59
2023-03-16T12:44:00.102Z,99725.38
2023-03-16T12:45:02.353Z,99722.17
2023-03-16T12:46:06.528Z,99723.92
2023-03-16T12:47:08.778Z,99723.63
2023-03-16T12:48:11.254Z,99718.02
2023-03-16T12:49:15.356Z,99717.34
2023-03-16T12:50:19.250Z,99714.42
2023-03-16T12:51:23.191Z,99711.38
2023-03-16T12:52:25.637Z,99709.33
2023-03-16T12:53:28.131Z,99716.63
2023-03-16T12:54:32.168Z,99720.99
2023-03-16T12:55:34.603Z,99716.95
2023-03-16T12:56:37.020Z,99722.20
2023-03-16T12:57:39.429Z,99716.19
2023-03-16T12:58:43.661Z,99715.94
2023-03-16T12:59:45.856Z,99714.01
2023-03-16T13:00:49.891Z,99713.78
2023-03-16T13:01:53.799Z,99710.09
2023-03-16T13:02:59.032Z,99710.63
2023-03-16T13:04:02.884Z,99710.02
2023-03-16T13:05:05.163Z,99708.42
2023-03-16T13:06:07.646Z,99703.44
2023-03-16T13:07:11.720Z,99701.20
2023-03-16T13:08:14.009Z,99702.27
2023-03-16T13:09:16.464Z,99693.06
2023-03-16T13:10:18.912Z,99691.14
2023-03-16T13:11:22.973Z,99693.42
2023-03-16T13:12:26.906Z,99695.08
2023-03-16T13:13:29.288Z,99694.84
2023-03-16T13:14:31.766Z,99683.48
2023-03-16T13:15:35.845Z,99691.64
2023-03-16T13:16:38.196Z,99684.88
2023-03-16T13:17:40.605Z,99688.45
2023-03-16T13:18:44.661Z,99690.38
2023-03-16T13:19:46.975Z,99683.67
2023-03-16T13:20:49.442Z,99677.92
2023-03-16T13:21:51.901Z,99680.52
2023-03-16T13:22:54.300Z,99680.33
2023-03-16T13:23:58.352Z,99676.43
2023-03-16T13:25:00.738Z,99680.20
2023-03-16T13:26:03.247Z,99670.38
2023-03-16T13:27:07.191Z,99674.78
2023-03-16T13:28:09.600Z,99667.43
2023-03-16T13:29:12.121Z,99665.71
2023-03-16T13:30:14.631Z,99670.70
2023-03-16T13:31:17.108Z,99666.41
2023-03-16T13:32:19.578Z,99662.75
2023-03-16T13:33:22.005Z,99668.22
2023-03-16T13:34:24.416Z,99664.33
2023-03-16T13:35:28.467Z,99666.47
2023-03-16T13:36:30.800Z,99670.39
2023-03-16T13:37:33.254Z,99667.58
2023-03-16T13:38:35.734Z,99665.33
2023-03-16T13:39:38.181Z,99665.28
2023-03-16T13:40:42.308Z,99664.05
2023-03-16T13:41:46.263Z,99664.30
2023-03-16T13:42:48.703Z,99661.97
2023-03-16T13:43:52.719Z,99663.09
2023-03-16T13:44:55.554Z,99655.77
2023-03-16T13:45:57.522Z,99661.81
2023-03-16T13:47:01.570Z,99658.69
2023-03-16T13:48:03.899Z,99658.13
2023-03-16T13:49:06.325Z,99659.23
2023-03-16T13:50:10.342Z,99658.00
2023-03-16T13:51:12.697Z,99654.22
2023-03-16T13:52:16.715Z,99652.70
2023-03-16T13:53:21.620Z,99652.73
2023-03-16T13:54:25.600Z,99646.41
2023-03-16T13:55:29.501Z,99655.02
2023-03-16T13:56:33.514Z,99651.17
2023-03-16T13:57:35.830Z,99650.06
2023-03-16T13:58:39.861Z,99649.75
2023-03-16T13:59:43.872Z,99650.37
2023-03-16T14:00:46.189Z,99653.48
2023-03-16T14:01:48.622Z,99657.71
2023-03-16T14:02:51.233Z,99655.48
2023-03-16T14:03:53.634Z,99654.08
2023-03-16T14:04:56.015Z,99647.22
2023-03-16T14:05:58.491Z,99643.86
2023-03-16T14:07:00.985Z,99641.52
2023-03-16T14:08:05.178Z,99640.55
2023-03-16T14:09:07.430Z,99637.67
2023-03-16T14:10:11.462Z,99638.58
2023-03-16T14:11:13.849Z,99635.58
2023-03-16T14:12:16.349Z,99636.38
2023-03-16T14:13:18.731Z,99633.17
2023-03-16T14:14:22.821Z,99627.44
2023-03-16T14:15:26.777Z,99628.67
2023-03-16T14:16:29.086Z,99624.77
2023-03-16T14:17:31.527Z,99629.87
2023-03-16T14:18:34.026Z,99624.13
2023-03-16T14:19:38.097Z,99630.30
2023-03-16T14:20:41.348Z,99625.48
2023-03-16T14:21:44.514Z,99628.20
2023-03-16T14:22:46.810Z,99624.06
2023-03-16T14:23:49.250Z,99623.39
2023-03-16T14:24:53.329Z,99627.23
2023-03-16T14:25:57.336Z,99621.98
2023-03-16T14:27:01.252Z,99622.55
2023-03-16T14:28:03.658Z,99621.42
2023-03-16T14:29:07.744Z,99618.43
2023-03-16T14:30:10.123Z,99618.40
2023-03-16T14:31:12.726Z,99618.19
2023-03-16T14:32:16.627Z,99619.89
2023-03-16T14:33:18.932Z,99612.87
2023-03-16T14:34:21.438Z,99620.69
2023-03-16T14:35:25.414Z,99612.39
2023-03-16T14:36:27.749Z,99606.05
2023-03-16T14:37:30.189Z,99613.95
2023-03-16T14:38:32.644Z,99612.35
2023-03-16T14:39:35.037Z,99608.66
2023-03-16T14:40:40.388Z,99608.77
2023-03-16T14:41:41.487Z,99610.69
2023-03-16T14:42:43.946Z,99613.52
2023-03-16T14:43:48.022Z,99613.55
2023-03-16T14:44:50.351Z,99612.16
2023-03-16T14:45:52.879Z,99611.22
2023-03-16T14:46:55.275Z,99612.89
2023-03-16T14:47:57.721Z,99604.44
2023-03-16T14:49:01.802Z,99603.03
2023-03-16T14:50:04.117Z,99601.99
2023-03-16T14:51:06.615Z,99602.73
2023-03-16T14:52:09.088Z,99599.78
2023-03-16T14:53:13.339Z,99597.20
2023-03-16T14:54:17.133Z,99597.88
2023-03-16T14:55:19.487Z,99600.50
2023-03-16T14:56:23.529Z,99597.84
2023-03-16T14:57:25.863Z,99596.60
2023-03-16T14:58:29.933Z,99594.92
2023-03-16T14:59:32.230Z,99590.41
2023-03-16T15:00:39.845Z,99593.25
2023-03-16T15:01:38.791Z,99592.97
2023-03-16T15:02:41.102Z,99593.09
2023-03-16T15:03:43.531Z,99593.52
2023-03-16T15:04:45.942Z,99589.69
2023-03-16T15:05:50.016Z,99584.84
2023-03-16T15:06:52.393Z,99584.53
2023-03-16T15:07:55.013Z,99581.27
2023-03-16T15:08:57.321Z,99586.98
2023-03-16T15:09:59.819Z,99588.88
2023-03-16T15:11:02.204Z,99585.93
2023-03-16T15:12:04.661Z,99585.47
2023-03-16T15:13:07.580Z,99583.84
2023-03-16T15:14:10.209Z,99583.05
2023-03-16T15:15:12.682Z,99586.65
2023-03-16T15:16:15.435Z,99586.38
2023-03-16T15:17:17.879Z,99586.13
2023-03-16T15:18:21.933Z,99581.04
2023-03-16T15:19:24.258Z,99585.42
2023-03-16T15:20:27.013Z,99585.48
2023-03-16T15:21:30.790Z,99585.65
2023-03-16T15:22:33.139Z,99588.78
2023-03-16T15:23:35.609Z,99590.64
2023-03-16T15:24:39.757Z,99587.62
2023-03-16T15:25:42.097Z,99592.16
2023-03-16T15:26:44.515Z,99580.25
2023-03-16T15:27:47.000Z,99585.67
2023-03-16T15:28:49.464Z,99579.24
2023-03-16T15:29:53.495Z,99576.48
2023-03-16T15:30:55.866Z,99575.88
2023-03-16T15:31:58.330Z,99572.91
2023-03-16T15:33:00.889Z,99565.98
2023-03-16T15:34:03.423Z,99569.91
2023-03-16T15:35:05.915Z,99564.70
2023-03-16T15:36:10.057Z,99559.91
2023-03-16T15:37:13.946Z,99565.95
2023-03-16T15:38:17.261Z,99562.20
2023-03-16T15:39:21.244Z,99559.88
2023-03-16T15:40:23.564Z,99560.23
2023-03-16T15:41:32.316Z,99561.89
2023-03-16T15:42:29.939Z,99560.67
2023-03-16T15:43:32.452Z,99561.14
2023-03-16T15:44:34.900Z,99554.76
2023-03-16T15:45:37.411Z,99559.50
2023-03-16T15:46:39.932Z,99556.78
2023-03-16T15:47:42.344Z,99556.42
2023-03-16T15:48:44.828Z,99556.34
2023-03-16T15:49:48.173Z,99555.41
2023-03-16T15:50:51.362Z,99551.28
2023-03-16T15:51:55.284Z,99554.44
2023-03-16T15:52:59.334Z,99554.83
2023-03-16T15:54:01.621Z,99549.62
2023-03-16T15:55:04.112Z,99545.41
2023-03-16T15:56:06.580Z,99542.13
2023-03-16T15:57:10.616Z,99539.34
2023-03-16T15:58:12.935Z,99538.65
2023-03-16T15:59:17.255Z,99535.52
2023-03-16T16:00:19.517Z,99537.55
2023-03-16T16:01:23.693Z,99539.28
2023-03-16T16:02:25.927Z,99536.09
2023-03-16T16:03:29.977Z,99537.28
2023-03-16T16:04:34.038Z,99538.39
2023-03-16T16:05:37.811Z,99538.61
2023-03-16T16:06:41.735Z,99537.67
2023-03-16T16:07:45.607Z,99542.77
2023-03-16T16:08:47.934Z,99544.83
2023-03-16T16:09:51.947Z,99545.45
2023-03-16T16:10:54.285Z,99546.55
2023-03-16T16:11:56.795Z,99551.71
2023-03-16T16:12:59.255Z,99551.89
2023-03-16T16:14:03.565Z,99551.91
2023-03-16T16:15:05.879Z,99553.80
2023-03-16T16:16:08.372Z,99549.45
2023-03-16T16:17:10.763Z,99543.95
2023-03-16T16:18:21.122Z,99541.03
2023-03-16T16:19:17.164Z,99538.63
2023-03-16T16:20:22.290Z,99537.38
2023-03-16T16:21:26.150Z,99529.71
2023-03-16T16:22:28.484Z,99531.16
2023-03-16T16:23:32.526Z,99529.50
2023-03-16T16:24:34.864Z,99526.38
2023-03-16T16:25:38.859Z,99526.20
2023-03-16T16:26:49.779Z,99525.97
2023-03-16T16:27:44.568Z,99523.77
2023-03-16T16:28:48.006Z,99521.37
2023-03-16T16:29:50.378Z,99518.98
2023-03-16T16:30:52.840Z,99519.30
2023-03-16T16:31:56.910Z,99515.38
2023-03-16T16:32:59.604Z,99516.31
2023-03-16T16:34:02.181Z,99515.81
2023-03-16T16:35:06.148Z,99514.55
2023-03-16T16:36:10.038Z,99512.81
2023-03-16T16:37:12.346Z,99520.41
2023-03-16T16:38:14.789Z,99519.11
2023-03-16T16:39:17.213Z,99521.95
2023-03-16T16:40:21.202Z,99523.61
2023-03-16T16:41:23.592Z,99521.03
2023-03-16T16:42:27.655Z,99518.38
2023-03-16T16:43:31.592Z,99516.39
2023-03-16T16:44:35.801Z,99518.63
2023-03-16T16:45:38.067Z,99516.64
2023-03-16T16:46:40.349Z,99517.08
2023-03-16T16:47:44.312Z,99520.55
2023-03-16T16:48:49.204Z,99520.64
2023-03-16T16:49:51.457Z,99516.48
2023-03-16T16:50:53.917Z,99521.55
2023-03-16T16:51:57.986Z,99520.79
2023-03-16T16:53:00.639Z,99520.31
2023-03-16T17:02:32.560Z,99533.71
2023-03-16T17:03:34.930Z,99531.33
2023-03-16T17:04:39.022Z,99530.30
2023-03-16T17:05:41.633Z,99531.77
2023-03-16T17:06:44.269Z,99528.98
2023-03-16T17:07:48.316Z,99528.66
2023-03-16T17:08:50.679Z,99530.57
2023-03-16T17:09:53.318Z,99530.61
2023-03-16T17:10:55.714Z,99530.23
2023-03-16T17:11:59.247Z,99537.16
2023-03-16T17:13:03.153Z,99526.19
2023-03-16T17:14:05.481Z,99528.23
2023-03-16T17:15:08.126Z,99526.94
2023-03-16T17:16:12.153Z,99524.63
2023-03-16T17:17:15.029Z,99523.98
2023-03-16T17:18:17.183Z,99523.08
2023-03-16T17:19:21.563Z,99523.31
2023-03-16T17:20:23.925Z,99519.29
2023-03-16T17:21:26.507Z,99527.77
2023-03-16T17:22:30.521Z,99514.77
2023-03-16T17:23:32.831Z,99517.73
2023-03-16T17:24:35.245Z,99519.98
2023-03-16T17:25:37.655Z,99517.09
2023-03-16T17:26:40.086Z,99517.61
2023-03-16T17:27:44.168Z,99516.23
2023-03-16T17:28:46.451Z,99521.17
2023-03-16T17:29:48.902Z,99517.84
2023-03-16T17:30:53.271Z,99516.70
2023-03-16T17:31:55.445Z,99514.44
2023-03-16T17:32:57.910Z,99514.02
2023-03-16T17:34:01.892Z,99517.32
2023-03-16T17:35:04.148Z,99512.34
2023-03-16T17:36:06.607Z,99507.30
2023-03-16T17:37:08.989Z,99505.20
2023-03-16T17:38:13.077Z,99510.38
2023-03-16T17:39:15.369Z,99511.02
2023-03-16T17:48:48.266Z,99513.34
2023-03-16T17:49:50.584Z,99514.16
2023-03-16T17:50:54.569Z,99516.78
2023-03-16T17:51:57.067Z,99514.88
2023-03-16T17:52:59.612Z,99514.38
2023-03-16T17:54:01.991Z,99514.77
2023-03-16T17:55:04.567Z,99514.39
2023-03-16T17:56:08.281Z,99511.84
2023-03-16T17:57:10.764Z,99510.69
2023-03-16T17:58:16.788Z,99512.67
2023-03-16T17:59:19.026Z,99504.18
2023-03-16T18:08:49.656Z,99507.16
2023-03-16T18:09:52.274Z,99503.45
2023-03-16T18:10:55.684Z,99498.38
2023-03-16T18:20:26.824Z,99490.48
2023-03-16T18:21:31.939Z,99488.13
2023-03-16T18:31:02.034Z,99488.91
2023-03-16T18:40:34.971Z,99487.76
2023-03-16T18:50:09.773Z,99488.07
2023-03-16T18:59:42.035Z,99507.39
2023-03-16T19:00:45.448Z,99495.42
2023-03-16T19:01:47.857Z,99494.16
2023-03-16T19:11:19.958Z,99488.98
2023-03-16T19:20:53.442Z,99484.46
2023-03-16T19:30:25.788Z,99482.94
2023-03-16T19:31:28.207Z,99484.05
2023-03-16T19:41:01.259Z,99475.59
2023-03-16T19:50:34.643Z,99466.04
2023-03-16T19:51:37.194Z,99466.12
2023-03-16T20:01:09.644Z,99465.77
2023-03-16T20:10:43.349Z,99456.58
2023-03-16T20:20:16.825Z,99457.39
2023-03-16T20:29:52.914Z,99462.23
2023-03-16T20:39:23.837Z,99447.03
2023-03-16T20:48:56.809Z,99436.61
2023-03-16T20:58:30.505Z,99421.03
2023-03-16T21:08:05.734Z,99433.13
2023-03-16T21:17:38.236Z,99420.41
2023-03-16T21:27:13.383Z,99415.48
2023-03-16T21:36:46.735Z,99417.77
2023-03-16T21:46:18.805Z,99406.34
2023-03-16T21:55:53.484Z,99399.80
2023-03-16T22:05:25.196Z,99390.83
2023-03-16T22:14:59.026Z,99384.48
2023-03-16T22:24:34.922Z,99380.84
2023-03-16T22:34:04.491Z,99371.46
2023-03-16T22:43:39.819Z,99370.59
2023-03-16T22:53:11.734Z,99361.85
2023-03-16T23:02:45.554Z,99353.31
2023-03-16T23:12:18.853Z,99353.66
2023-03-16T23:21:54.198Z,99343.44
2023-03-16T23:31:25.596Z,99340.02
2023-03-16T23:40:59.062Z,99321.56
2023-03-16T23:50:32.732Z,99329.55
